createdAt,value
2023-02-11T00:00:03.427Z,81.8
2023-02-11T00:03:03.554Z,81.8
2023-02-11T00:06:03.426Z,81.8
2023-02-11T00:09:03.480Z,81.8
2023-02-11T00:12:03.400Z,81.8
2023-02-11T00:15:03.513Z,81.8
2023-02-11T00:18:03.363Z,81.8
2023-02-11T00:21:03.381Z,81.8
2023-02-11T00:24:03.330Z,81.8
2023-02-11T00:27:03.396Z,82.5
2023-02-11T00:30:03.371Z,82.5
2023-02-11T00:33:03.444Z,82.5
2023-02-11T00:36:03.458Z,82.5
2023-02-11T00:39:03.418Z,82.5
2023-02-11T00:42:03.370Z,82.5
2023-02-11T00:45:03.405Z,82.5
2023-02-11T00:48:03.388Z,82.5
2023-02-11T00:51:03.429Z,82.5
2023-02-11T00:54:03.408Z,82.5
2023-02-11T00:57:03.484Z,82.5
2023-02-11T01:00:03.463Z,82.5
2023-02-11T01:03:03.398Z,82.5
2023-02-11T01:06:03.447Z,82.5
2023-02-11T01:09:03.362Z,82.5
2023-02-11T01:12:03.391Z,82.5
2023-02-11T01:15:03.485Z,82.5
2023-02-11T01:18:03.661Z,83.2
2023-02-11T01:21:03.397Z,83.2
2023-02-11T01:24:03.374Z,83.2
2023-02-11T01:27:03.449Z,83.2
2023-02-11T01:30:03.435Z,83.2
2023-02-11T01:33:03.408Z,83.2
2023-02-11T01:36:03.390Z,83.3
2023-02-11T01:39:03.461Z,83.3
2023-02-11T01:42:03.351Z,83.3
2023-02-11T01:45:03.690Z,83.5
2023-02-11T01:48:03.423Z,83.5
2023-02-11T01:51:03.435Z,83.5
2023-02-11T01:54:03.385Z,83.5
2023-02-11T01:57:03.435Z,83.5
2023-02-11T02:00:03.414Z,83.5
2023-02-11T02:03:03.377Z,83.5
2023-02-11T02:06:03.396Z,83.5
2023-02-11T02:09:03.416Z,83.5
2023-02-11T02:12:03.412Z,83.5
2023-02-11T02:15:03.416Z,83.5
2023-02-11T02:18:03.436Z,83.5
2023-02-11T02:21:03.396Z,83.5
2023-02-11T02:24:03.421Z,83.5
2023-02-11T02:27:03.417Z,84.1
2023-02-11T02:30:03.462Z,84.1
2023-02-11T02:33:24.451Z,84.1
2023-02-11T02:36:03.374Z,84.1
2023-02-11T02:39:03.412Z,84.1
2023-02-11T02:42:03.386Z,84.1
2023-02-11T02:45:03.347Z,84.1
2023-02-11T02:48:03.439Z,84.1
2023-02-11T02:51:03.333Z,84.1
2023-02-11T02:54:03.462Z,84.7
2023-02-11T02:57:03.370Z,84.7
2023-02-11T03:00:03.426Z,84.7
2023-02-11T03:03:03.422Z,84.7
2023-02-11T03:06:03.412Z,84.7
2023-02-11T03:09:03.454Z,84.7
2023-02-11T03:12:03.414Z,84.7
2023-02-11T03:15:03.478Z,84.7
2023-02-11T03:18:03.514Z,84.7
2023-02-11T03:21:03.945Z,84.7
2023-02-11T03:24:03.412Z,84.7
2023-02-11T03:27:03.628Z,84.7
2023-02-11T03:30:03.440Z,84.7
2023-02-11T03:33:03.398Z,84.7
2023-02-11T03:36:03.391Z,84.7
2023-02-11T03:39:03.419Z,84.7
2023-02-11T03:42:03.419Z,84.7
2023-02-11T03:45:03.365Z,84.7
2023-02-11T03:48:03.413Z,86.6
2023-02-11T03:51:03.384Z,86.6
2023-02-11T03:54:03.355Z,86.6
2023-02-11T03:57:03.388Z,86.6
2023-02-11T04:00:03.606Z,86.6
2023-02-11T04:03:03.641Z,87
2023-02-11T04:06:03.419Z,87
2023-02-11T04:09:03.399Z,87
2023-02-11T04:12:03.412Z,87
2023-02-11T04:15:03.485Z,87
2023-02-11T04:18:03.420Z,87
2023-02-11T04:21:03.468Z,87
2023-02-11T04:24:03.361Z,87
2023-02-11T04:27:03.468Z,87
2023-02-11T04:30:03.415Z,87
2023-02-11T04:33:03.456Z,87
2023-02-11T04:36:03.372Z,87
2023-02-11T04:39:03.446Z,87
2023-02-11T04:42:03.417Z,87
2023-02-11T04:45:03.434Z,87
2023-02-11T04:48:03.381Z,87
2023-02-11T04:51:03.404Z,87
2023-02-11T04:54:03.361Z,87
2023-02-11T04:57:03.438Z,87
2023-02-11T05:00:03.448Z,87
2023-02-11T05:03:03.430Z,87
2023-02-11T05:06:03.409Z,87
2023-02-11T05:09:03.427Z,87
2023-02-11T05:12:03.412Z,87
2023-02-11T05:15:03.467Z,87
2023-02-11T05:18:03.616Z,87
2023-02-11T05:21:03.440Z,87
2023-02-11T05:24:03.443Z,87
2023-02-11T05:27:03.453Z,87
2023-02-11T05:30:03.506Z,87
2023-02-11T05:33:03.477Z,87
2023-02-11T05:36:03.643Z,87
2023-02-11T05:39:03.351Z,87
2023-02-11T05:42:03.438Z,87
2023-02-11T05:45:03.541Z,87
2023-02-11T05:48:03.406Z,87
2023-02-11T05:51:03.714Z,87
2023-02-11T05:54:03.415Z,87
2023-02-11T05:57:03.417Z,87
2023-02-11T06:00:03.650Z,91
2023-02-11T06:03:03.411Z,91
2023-02-11T06:06:03.369Z,91
2023-02-11T06:09:03.425Z,91
2023-02-11T06:12:03.352Z,91
2023-02-11T06:15:03.412Z,91
2023-02-11T06:18:03.388Z,91
2023-02-11T06:21:03.512Z,91
2023-02-11T06:24:03.409Z,91
2023-02-11T06:27:03.515Z,91
2023-02-11T06:30:03.480Z,91
2023-02-11T06:33:03.385Z,91
2023-02-11T06:36:03.405Z,91
2023-02-11T06:39:03.396Z,91
2023-02-11T06:42:03.435Z,91
2023-02-11T06:45:03.704Z,91
2023-02-11T06:48:03.448Z,91
2023-02-11T06:51:03.485Z,91
2023-02-11T06:54:03.449Z,91
2023-02-11T06:57:03.517Z,91
2023-02-11T07:00:03.750Z,91
2023-02-11T07:03:03.712Z,91
2023-02-11T07:06:03.495Z,91
2023-02-11T07:09:03.468Z,91
2023-02-11T07:12:03.461Z,91
2023-02-11T07:15:03.591Z,91
2023-02-11T07:18:03.515Z,91
2023-02-11T07:21:03.392Z,91
2023-02-11T07:24:03.424Z,91
2023-02-11T07:27:03.452Z,91
2023-02-11T07:30:05.504Z,91
2023-02-11T07:33:03.423Z,91
2023-02-11T07:36:03.535Z,91
2023-02-11T07:39:03.453Z,91
2023-02-11T07:42:03.413Z,91
2023-02-11T07:45:03.512Z,91
2023-02-11T07:48:03.464Z,91
2023-02-11T07:51:03.541Z,91
2023-02-11T07:54:03.565Z,91
2023-02-11T07:57:03.471Z,91
2023-02-11T08:00:03.808Z,91
2023-02-11T08:03:03.468Z,91
2023-02-11T08:06:03.582Z,91
2023-02-11T08:09:03.496Z,91
2023-02-11T08:12:03.439Z,91
2023-02-11T08:15:03.491Z,91
2023-02-11T08:18:03.499Z,91
2023-02-11T08:21:03.512Z,90
2023-02-11T08:24:03.517Z,90
2023-02-11T08:27:03.399Z,90
2023-02-11T08:30:03.509Z,90
2023-02-11T08:33:03.559Z,90
2023-02-11T08:36:03.484Z,90
2023-02-11T08:39:22.274Z,90
2023-02-11T08:42:03.521Z,90
2023-02-11T08:45:03.560Z,90
2023-02-11T08:48:03.519Z,90
2023-02-11T08:51:03.550Z,90
2023-02-11T08:54:03.387Z,90
2023-02-11T08:57:03.477Z,90
2023-02-11T09:00:03.637Z,90
2023-02-11T09:03:03.454Z,90
2023-02-11T09:06:03.438Z,90
2023-02-11T09:09:03.602Z,90
2023-02-11T09:12:03.398Z,90
2023-02-11T09:15:03.517Z,90
2023-02-11T09:18:03.536Z,90
2023-02-11T09:21:03.532Z,90
2023-02-11T09:24:03.586Z,90
2023-02-11T09:27:03.481Z,90
2023-02-11T09:30:03.747Z,90
2023-02-11T09:33:03.421Z,89.8
2023-02-11T09:36:03.500Z,89.8
2023-02-11T09:39:03.562Z,89.8
2023-02-11T09:42:03.481Z,89.8
2023-02-11T09:45:03.521Z,89.8
2023-02-11T09:48:06.122Z,89.3
2023-02-11T09:51:03.425Z,89.3
2023-02-11T09:54:07.796Z,89.3
2023-02-11T09:57:03.531Z,89.3
2023-02-11T10:00:03.669Z,89.3
2023-02-11T10:03:03.528Z,89.3
2023-02-11T10:06:03.398Z,89.3
2023-02-11T10:09:03.490Z,89.3
2023-02-11T10:12:03.568Z,89.3
2023-02-11T10:15:03.426Z,89.3
2023-02-11T10:18:03.542Z,89.3
2023-02-11T10:21:03.500Z,89.3
2023-02-11T10:24:03.540Z,89.3
2023-02-11T10:27:03.506Z,89.3
2023-02-11T10:30:03.550Z,89.3
2023-02-11T10:33:03.418Z,89.3
2023-02-11T10:36:03.633Z,89.3
2023-02-11T10:39:03.496Z,89.3
2023-02-11T10:42:03.430Z,89.3
2023-02-11T10:45:03.548Z,89
2023-02-11T10:48:03.456Z,89
2023-02-11T10:51:03.436Z,89
2023-02-11T10:54:03.542Z,89
2023-02-11T10:57:04.007Z,89
2023-02-11T11:00:03.554Z,89
2023-02-11T11:03:03.440Z,89
2023-02-11T11:06:03.570Z,89
2023-02-11T11:09:03.574Z,89
2023-02-11T11:12:03.616Z,89
2023-02-11T11:15:03.545Z,89
2023-02-11T11:18:24.803Z,88.5
2023-02-11T11:21:03.549Z,88.5
2023-02-11T11:24:03.440Z,88.5
2023-02-11T11:27:03.487Z,88.5
2023-02-11T11:30:03.651Z,88.5
2023-02-11T11:33:03.459Z,88.5
2023-02-11T11:36:03.529Z,88.5
2023-02-11T11:39:03.436Z,88.5
2023-02-11T11:42:03.465Z,88.5
2023-02-11T11:45:03.526Z,88.5
2023-02-11T11:48:03.525Z,88.5
2023-02-11T11:51:03.507Z,88.5
2023-02-11T11:54:03.508Z,88.5
2023-02-11T11:57:03.522Z,88.5
2023-02-11T12:00:03.469Z,88.5
2023-02-11T12:03:03.767Z,88.5
2023-02-11T12:06:03.539Z,88.5
2023-02-11T12:09:03.421Z,88.2
2023-02-11T12:12:03.519Z,88.2
2023-02-11T12:15:03.599Z,88.2
2023-02-11T12:18:03.468Z,88.2
2023-02-11T12:21:03.575Z,88.2
2023-02-11T12:24:03.535Z,88.2
2023-02-11T12:27:03.431Z,88.2
2023-02-11T12:30:03.603Z,88.2
2023-02-11T12:33:03.446Z,88.2
2023-02-11T12:36:03.537Z,88.2
2023-02-11T12:39:03.565Z,88.2
2023-02-11T12:42:03.535Z,88.2
2023-02-11T12:45:03.766Z,88.2
2023-02-11T12:48:03.509Z,88.2
2023-02-11T12:51:03.452Z,88.2
2023-02-11T12:54:05.280Z,88.2
2023-02-11T12:57:03.542Z,88.2
2023-02-11T13:00:03.569Z,88.2
2023-02-11T13:03:03.449Z,88.2
2023-02-11T13:06:03.599Z,88.2
2023-02-11T13:09:03.514Z,88.2
2023-02-11T13:12:03.561Z,88.2
2023-02-11T13:15:03.562Z,88.2
2023-02-11T13:18:03.516Z,88.2
2023-02-11T13:21:03.469Z,88.2
2023-02-11T13:24:03.539Z,88.2
2023-02-11T13:27:03.436Z,88.2
2023-02-11T13:30:06.796Z,88.2
2023-02-11T13:33:03.675Z,88.2
2023-02-11T13:36:07.007Z,88.2
2023-02-11T13:39:03.555Z,88.2
2023-02-11T13:42:03.469Z,88.2
2023-02-11T13:45:03.693Z,88.2
2023-02-11T13:48:03.497Z,88.2
2023-02-11T13:51:03.517Z,88.2
2023-02-11T13:54:03.474Z,88.2
2023-02-11T13:57:03.437Z,88.2
2023-02-11T14:00:03.476Z,88.2
2023-02-11T14:03:03.561Z,88.2
2023-02-11T14:06:03.399Z,88.2
2023-02-11T14:09:03.513Z,88.2
2023-02-11T14:12:03.571Z,88.2
2023-02-11T14:15:09.581Z,88.2
2023-02-11T14:18:03.494Z,88.2
2023-02-11T14:21:05.853Z,88.2
2023-02-11T14:24:03.419Z,88.2
2023-02-11T14:27:03.494Z,88.1
2023-02-11T14:30:03.489Z,88.1
2023-02-11T14:33:03.386Z,88.1
2023-02-11T14:36:03.386Z,88.1
2023-02-11T14:39:03.487Z,88.1
2023-02-11T14:42:03.474Z,88.1
2023-02-11T14:45:03.474Z,88.1
2023-02-11T14:48:03.513Z,88.1
2023-02-11T14:51:03.433Z,88.1
2023-02-11T14:54:03.444Z,88.1
2023-02-11T14:57:03.504Z,88.1
2023-02-11T15:00:03.628Z,88.1
2023-02-11T15:03:03.730Z,88.1
2023-02-11T15:06:03.527Z,88.1
2023-02-11T15:09:03.501Z,88.1
2023-02-11T15:12:03.506Z,88.1
2023-02-11T15:15:03.497Z,88.1
2023-02-11T15:18:03.450Z,88.1
2023-02-11T15:21:03.492Z,88.1
2023-02-11T15:24:03.531Z,88.1
2023-02-11T15:27:03.433Z,88.1
2023-02-11T15:30:03.473Z,88.1
2023-02-11T15:33:03.454Z,88.1
2023-02-11T15:36:03.462Z,88.1
2023-02-11T15:39:03.401Z,88.1
2023-02-11T15:42:03.373Z,88.1
2023-02-11T15:45:03.549Z,88.1
2023-02-11T15:48:03.489Z,88.1
2023-02-11T15:51:03.701Z,88.1
2023-02-11T15:54:03.481Z,88.1
2023-02-11T15:57:03.468Z,88.1
2023-02-11T16:00:03.626Z,88.1
2023-02-11T16:03:03.736Z,88.1
2023-02-11T16:06:03.440Z,88.1
2023-02-11T16:09:03.463Z,88.1
2023-02-11T16:12:03.420Z,88
2023-02-11T16:15:03.426Z,88
2023-02-11T16:18:03.481Z,88
2023-02-11T16:21:03.592Z,88
2023-02-11T16:24:03.387Z,88
2023-02-11T16:27:03.376Z,88
2023-02-11T16:30:03.559Z,88
2023-02-11T16:33:03.380Z,88
2023-02-11T16:36:03.404Z,88
2023-02-11T16:39:03.392Z,88
2023-02-11T16:42:05.221Z,88
2023-02-11T16:45:03.510Z,88
2023-02-11T16:48:03.424Z,88
2023-02-11T16:51:03.463Z,88
2023-02-11T16:54:03.858Z,88
2023-02-11T16:57:03.460Z,88
2023-02-11T17:00:03.721Z,88.6
2023-02-11T17:03:03.487Z,88.6
2023-02-11T17:06:04.069Z,88.6
2023-02-11T17:09:03.423Z,88.6
2023-02-11T17:12:03.393Z,88.6
2023-02-11T17:15:04.925Z,88.6
2023-02-11T17:18:03.442Z,88.6
2023-02-11T17:21:03.385Z,88.6
2023-02-11T17:24:03.406Z,88.6
2023-02-11T17:27:03.391Z,88.6
2023-02-11T17:30:03.370Z,89.1
2023-02-11T17:33:03.486Z,89.1
2023-02-11T17:36:03.528Z,89.1
2023-02-11T17:39:03.802Z,89.1
2023-02-11T17:42:03.321Z,89.1
2023-02-11T17:45:03.547Z,89.1
2023-02-11T17:48:03.420Z,89.1
2023-02-11T17:51:03.408Z,89.1
2023-02-11T17:54:03.430Z,89.1
2023-02-11T17:57:03.405Z,89.1
2023-02-11T18:00:03.519Z,89.1
2023-02-11T18:03:03.433Z,89.1
2023-02-11T18:06:03.414Z,89.1
2023-02-11T18:09:03.516Z,90.3
2023-02-11T18:12:03.451Z,90.3
2023-02-11T18:15:03.478Z,90.3
2023-02-11T18:18:03.464Z,90.5
2023-02-11T18:21:03.411Z,90.5
2023-02-11T18:24:09.451Z,90.5
2023-02-11T18:27:03.404Z,90.5
2023-02-11T18:30:03.676Z,90.5
2023-02-11T18:33:03.360Z,90.5
2023-02-11T18:36:03.444Z,90.5
2023-02-11T18:39:03.432Z,90.5
2023-02-11T18:42:03.408Z,90.5
2023-02-11T18:45:03.491Z,90.5
2023-02-11T18:48:03.396Z,90.5
2023-02-11T18:51:03.421Z,90.5
2023-02-11T18:54:03.578Z,90.5
2023-02-11T18:57:03.347Z,90.7
2023-02-11T19:00:03.676Z,90.7
2023-02-11T19:03:03.404Z,90.7
2023-02-11T19:06:03.386Z,90.7
2023-02-11T19:09:03.428Z,90.7
2023-02-11T19:12:03.472Z,90.7
2023-02-11T19:15:03.487Z,90.7
2023-02-11T19:18:03.414Z,90.7
2023-02-11T19:21:03.426Z,90.7
2023-02-11T19:24:03.375Z,91.2
2023-02-11T19:27:03.420Z,91.2
2023-02-11T19:30:03.473Z,91.2
2023-02-11T19:33:03.426Z,91.2
2023-02-11T19:36:03.369Z,91.2
2023-02-11T19:39:03.508Z,91.2
2023-02-11T19:42:03.427Z,91.2
2023-02-11T19:45:03.444Z,91.2
2023-02-11T19:48:03.456Z,91.2
2023-02-11T19:51:03.406Z,91.2
2023-02-11T19:54:03.424Z,91.2
2023-02-11T19:57:03.382Z,91.2
2023-02-11T20:00:03.467Z,91.2
2023-02-11T20:03:03.693Z,91.2
2023-02-11T20:06:03.408Z,91.2
2023-02-11T20:09:03.456Z,92.1
2023-02-11T20:12:03.464Z,92.1
2023-02-11T20:15:03.419Z,92.1
2023-02-11T20:18:03.376Z,92.1
2023-02-11T20:21:03.455Z,92.1
2023-02-11T20:24:03.338Z,92.1
2023-02-11T20:27:03.421Z,92.7
2023-02-11T20:30:03.459Z,92.7
2023-02-11T20:33:03.377Z,92.7
2023-02-11T20:36:03.366Z,92.7
2023-02-11T20:39:03.494Z,92.7
2023-02-11T20:42:03.348Z,92.7
2023-02-11T20:45:03.866Z,92.7
2023-02-11T20:48:03.490Z,92.7
2023-02-11T20:51:03.435Z,92.7
2023-02-11T20:54:03.726Z,92.7
2023-02-11T20:57:03.409Z,92.7
2023-02-11T21:00:03.448Z,92.7
2023-02-11T21:03:03.603Z,92.7
2023-02-11T21:06:03.378Z,92.9
2023-02-11T21:09:03.394Z,92.9
2023-02-11T21:12:03.492Z,92.9
2023-02-11T21:15:03.443Z,92.9
2023-02-11T21:18:03.438Z,92.9
2023-02-11T21:21:05.404Z,92.9
2023-02-11T21:24:03.455Z,92.9
2023-02-11T21:27:03.431Z,92.9
2023-02-11T21:30:03.434Z,92.9
2023-02-11T21:33:03.417Z,93.3
2023-02-11T21:36:03.417Z,93.3
2023-02-11T21:39:03.429Z,93.3
2023-02-11T21:42:03.383Z,93.3
2023-02-11T21:45:03.712Z,93.3
2023-02-11T21:48:03.436Z,93.3
2023-02-11T21:51:03.460Z,93.3
2023-02-11T21:54:03.641Z,93.3
2023-02-11T21:57:03.481Z,93.3
2023-02-11T22:00:03.441Z,93.3
2023-02-11T22:03:03.372Z,93.3
2023-02-11T22:06:03.419Z,93.3
2023-02-11T22:09:03.483Z,93.7
2023-02-11T22:12:03.402Z,93.7
2023-02-11T22:15:03.901Z,93.7
2023-02-11T22:18:03.479Z,93.7
2023-02-11T22:21:03.426Z,93.7
2023-02-11T22:24:03.416Z,93.7
2023-02-11T22:27:03.490Z,93.7
2023-02-11T22:30:03.465Z,93.7
2023-02-11T22:33:03.425Z,93.7
2023-02-11T22:36:03.442Z,93.7
2023-02-11T22:39:03.393Z,93.7
2023-02-11T22:42:03.467Z,93.7
2023-02-11T22:45:03.526Z,94
2023-02-11T22:48:03.409Z,94
2023-02-11T22:51:03.643Z,94
2023-02-11T22:54:03.375Z,94
2023-02-11T22:57:03.414Z,94
2023-02-11T23:00:03.876Z,94
2023-02-11T23:03:03.466Z,94
2023-02-11T23:06:03.413Z,94
2023-02-11T23:09:03.423Z,94
2023-02-11T23:12:03.409Z,94
2023-02-11T23:15:07.453Z,94
2023-02-11T23:18:03.506Z,94
2023-02-11T23:21:03.372Z,94
2023-02-11T23:24:03.398Z,94
2023-02-11T23:27:03.413Z,94
2023-02-11T23:30:03.429Z,94.1
2023-02-11T23:33:03.402Z,94.1
2023-02-11T23:36:03.432Z,94.1
2023-02-11T23:39:03.419Z,94.1
2023-02-11T23:42:03.461Z,94.1
2023-02-11T23:45:03.390Z,94.1
2023-02-11T23:48:03.437Z,94.1
2023-02-11T23:51:03.440Z,94.1
2023-02-11T23:54:03.377Z,94.1
2023-02-11T23:57:03.418Z,94.1
